createdAt,value
2023-02-02T00:03:02.510Z,98528.13
2023-02-02T00:05:28.533Z,98521.81
2023-02-02T00:07:55.376Z,98521.50
2023-02-02T00:10:22.601Z,98525.47
2023-02-02T00:12:49.611Z,98522.44
2023-02-02T00:15:16.531Z,98518.53
2023-02-02T00:17:43.490Z,98520.72
2023-02-02T00:20:11.066Z,98522.00
2023-02-02T00:22:37.889Z,98514.84
2023-02-02T00:25:05.709Z,98515.28
2023-02-02T00:27:34.059Z,98505.47
2023-02-02T00:30:04.488Z,98506.88
2023-02-02T00:32:31.812Z,98507.47
2023-02-02T00:35:00.300Z,98505.44
2023-02-02T00:37:27.397Z,98499.19
2023-02-02T00:39:54.799Z,98508.56
2023-02-02T00:42:21.840Z,98503.19
2023-02-02T00:45:07.397Z,98509.13
2023-02-02T00:47:37.583Z,98505.63
2023-02-02T00:50:05.125Z,98504.63
2023-02-02T00:52:35.245Z,98503.66
2023-02-02T00:55:02.333Z,98502.69
2023-02-02T00:57:29.433Z,98501.69
2023-02-02T00:59:56.416Z,98505.25
2023-02-02T01:02:23.813Z,98498.28
2023-02-02T01:04:51.318Z,98493.06
2023-02-02T01:07:18.817Z,98497.75
2023-02-02T01:09:50.923Z,98492.53
2023-02-02T01:12:18.575Z,98501.41
2023-02-02T01:14:45.914Z,98495.16
2023-02-02T01:17:14.659Z,98496.91
2023-02-02T01:19:41.903Z,98492.16
2023-02-02T01:22:09.932Z,98493.72
2023-02-02T01:24:37.556Z,98497.22
2023-02-02T01:27:05.112Z,98497.00
2023-02-02T01:29:32.481Z,98490.16
2023-02-02T01:32:00.017Z,98489.28
2023-02-02T01:34:27.345Z,98494.13
2023-02-02T01:36:57.507Z,98493.16
2023-02-02T01:39:25.178Z,98493.06
2023-02-02T01:41:52.575Z,98496.78
2023-02-02T01:44:57.115Z,98500.09
2023-02-02T01:47:30.726Z,98494.88
2023-02-02T01:49:58.479Z,98486.22
2023-02-02T01:52:30.007Z,98491.44
2023-02-02T01:55:01.153Z,98495.78
2023-02-02T01:57:31.776Z,98498.44
2023-02-02T02:00:02.524Z,98491.56
2023-02-02T02:02:42.570Z,98496.00
2023-02-02T02:05:11.039Z,98489.91
2023-02-02T02:07:43.953Z,98497.78
2023-02-02T02:10:11.566Z,98496.94
2023-02-02T02:12:38.622Z,98494.47
2023-02-02T02:15:25.402Z,98500.59
2023-02-02T02:18:08.106Z,98499.06
2023-02-02T02:21:12.476Z,98496.38
2023-02-02T02:24:27.292Z,98506.31
2023-02-02T02:27:34.735Z,98501.97
2023-02-02T02:30:32.672Z,98511.56
2023-02-02T02:33:11.456Z,98512.53
2023-02-02T02:36:02.134Z,98509.19
2023-02-02T02:38:42.484Z,98511.81
2023-02-02T02:41:17.080Z,98516.25
2023-02-02T02:43:52.240Z,98509.25
2023-02-02T02:46:20.504Z,98507.47
2023-02-02T02:48:48.284Z,98517.81
2023-02-02T02:51:43.799Z,98520.28
2023-02-02T02:54:21.601Z,98522.94
2023-02-02T02:57:22.558Z,98525.53
2023-02-02T03:00:27.466Z,98518.53
2023-02-02T03:03:03.729Z,98520.22
2023-02-02T03:05:49.874Z,98522.00
2023-02-02T03:08:54.043Z,98530.72
2023-02-02T03:11:21.794Z,98523.91
2023-02-02T03:13:51.440Z,98531.75
2023-02-02T03:16:18.621Z,98532.59
2023-02-02T03:18:46.036Z,98529.06
2023-02-02T03:21:13.283Z,98531.78
2023-02-02T03:23:41.131Z,98536.69
2023-02-02T03:26:08.527Z,98531.41
2023-02-02T03:28:36.709Z,98530.47
2023-02-02T03:31:04.353Z,98533.75
2023-02-02T03:33:33.562Z,98530.84
2023-02-02T03:36:00.861Z,98533.22
2023-02-02T03:38:27.908Z,98525.34
2023-02-02T03:40:55.015Z,98531.53
2023-02-02T03:43:24.780Z,98526.34
2023-02-02T03:46:06.817Z,98532.28
2023-02-02T03:48:38.803Z,98532.16
2023-02-02T03:51:11.845Z,98532.06
2023-02-02T03:53:40.557Z,98528.50
2023-02-02T03:56:07.718Z,98536.31
2023-02-02T03:58:34.715Z,98534.50
2023-02-02T04:01:12.832Z,98538.69
2023-02-02T04:03:40.055Z,98531.78
2023-02-02T04:06:07.441Z,98533.59
2023-02-02T04:08:34.902Z,98539.63
2023-02-02T04:11:04.954Z,98541.34
2023-02-02T04:13:32.055Z,98544.78
2023-02-02T04:16:02.621Z,98547.25
2023-02-02T04:18:29.942Z,98534.16
2023-02-02T04:21:01.986Z,98542.06
2023-02-02T04:23:29.973Z,98540.28
2023-02-02T04:25:58.189Z,98542.91
2023-02-02T04:28:26.407Z,98540.47
2023-02-02T04:30:56.231Z,98543.16
2023-02-02T04:33:25.983Z,98546.53
2023-02-02T04:35:53.215Z,98551.69
2023-02-02T04:38:20.632Z,98557.69
2023-02-02T04:40:49.110Z,98554.22
2023-02-02T04:43:19.407Z,98553.38
2023-02-02T04:45:46.704Z,98555.94
2023-02-02T04:48:14.442Z,98560.22
2023-02-02T04:50:41.519Z,98561.13
2023-02-02T04:53:08.931Z,98559.28
2023-02-02T04:55:38.295Z,98560.81
2023-02-02T04:58:06.469Z,98557.34
2023-02-02T05:00:34.802Z,98557.41
2023-02-02T05:03:02.177Z,98559.09
2023-02-02T05:05:29.278Z,98557.47
2023-02-02T05:07:56.679Z,98558.44
2023-02-02T05:10:25.376Z,98561.16
2023-02-02T05:13:02.661Z,98551.66
2023-02-02T05:18:36.495Z,98562.47
2023-02-02T05:24:41.401Z,98567.22
2023-02-02T05:27:09.629Z,98570.56
2023-02-02T05:29:47.918Z,98573.28
2023-02-02T05:32:21.966Z,98558.72
2023-02-02T05:35:02.261Z,98567.56
2023-02-02T05:38:07.008Z,98574.31
2023-02-02T05:40:52.592Z,98583.03
2023-02-02T05:43:21.580Z,98576.00
2023-02-02T07:43:41.660Z,98645.53
2023-02-02T07:46:09.733Z,98643.47
2023-02-02T07:48:36.612Z,98643.97
2023-02-02T07:51:17.112Z,98639.03
2023-02-02T07:54:02.402Z,98639.38
2023-02-02T07:56:42.044Z,98646.81
2023-02-02T07:59:17.475Z,98645.59
2023-02-02T08:01:48.373Z,98647.03
2023-02-02T08:04:20.484Z,98647.75
2023-02-02T08:06:48.459Z,98643.66
2023-02-02T08:09:15.852Z,98650.63
2023-02-02T08:11:43.368Z,98652.72
2023-02-02T08:14:14.471Z,98650.50
2023-02-02T08:16:43.228Z,98653.66
2023-02-02T08:19:12.442Z,98647.53
2023-02-02T08:21:40.722Z,98660.63
2023-02-02T08:24:08.827Z,98659.75
2023-02-02T08:26:39.076Z,98659.97
2023-02-02T08:29:08.837Z,98664.50
2023-02-02T08:31:38.789Z,98664.16
2023-02-02T08:34:07.169Z,98669.16
2023-02-02T08:36:38.191Z,98670.69
2023-02-02T08:39:08.373Z,98665.75
2023-02-02T08:41:37.574Z,98669.56
2023-02-02T08:44:11.318Z,98662.66
2023-02-02T08:46:39.013Z,98666.25
2023-02-02T08:49:06.585Z,98664.69
2023-02-02T08:51:34.462Z,98671.19
2023-02-02T08:54:02.712Z,98672.03
2023-02-02T08:56:30.101Z,98659.59
2023-02-02T08:58:59.658Z,98664.81
2023-02-02T09:01:30.769Z,98667.16
2023-02-02T09:04:06.979Z,98669.78
2023-02-02T09:06:37.953Z,98665.47
2023-02-02T09:09:07.512Z,98666.78
2023-02-02T09:11:36.297Z,98665.91
2023-02-02T09:14:06.971Z,98657.19
2023-02-02T09:16:36.267Z,98662.28
2023-02-02T09:19:05.815Z,98656.13
2023-02-02T09:21:37.717Z,98655.72
2023-02-02T09:24:12.772Z,98645.69
2023-02-02T09:26:40.844Z,98640.72
2023-02-02T09:29:13.541Z,98642.53
2023-02-02T09:31:41.847Z,98639.75
2023-02-02T09:34:14.553Z,98636.94
2023-02-02T09:36:44.011Z,98641.97
2023-02-02T09:39:13.897Z,98641.06
2023-02-02T09:41:55.027Z,98634.34
2023-02-02T09:44:47.540Z,98628.38
2023-02-02T09:47:43.070Z,98629.44
2023-02-02T09:50:37.957Z,98628.03
2023-02-02T09:53:17.772Z,98621.69
2023-02-02T09:55:59.267Z,98628.06
2023-02-02T09:58:55.396Z,98633.22
2023-02-02T10:01:36.863Z,98635.06
2023-02-02T10:04:25.425Z,98632.75
2023-02-02T10:07:00.253Z,98627.09
2023-02-02T10:09:51.320Z,98621.19
2023-02-02T10:13:05.358Z,98625.44
2023-02-02T10:16:05.618Z,98628.50
2023-02-02T10:18:59.782Z,98623.22
2023-02-02T10:21:40.640Z,98627.31
2023-02-02T10:24:20.483Z,98624.19
2023-02-02T10:26:57.130Z,98624.91
2023-02-02T10:29:49.277Z,98626.03
2023-02-02T10:32:49.167Z,98636.53
2023-02-02T10:35:28.835Z,98627.56
2023-02-02T10:38:10.150Z,98622.44
2023-02-02T10:40:52.767Z,98628.88
2023-02-02T10:43:47.081Z,98624.72
2023-02-02T10:46:29.917Z,98613.34
2023-02-02T10:49:12.368Z,98617.56
2023-02-02T10:51:43.844Z,98621.34
2023-02-02T10:54:54.925Z,98626.78
2023-02-02T10:58:00.725Z,98626.22
2023-02-02T11:00:50.892Z,98629.09
2023-02-02T11:03:20.353Z,98627.66
2023-02-02T11:06:06.489Z,98626.13
2023-02-02T11:08:44.334Z,98626.94
2023-02-02T11:11:30.122Z,98626.97
2023-02-02T11:14:10.077Z,98644.66
2023-02-02T11:16:45.885Z,98635.84
2023-02-02T11:19:19.982Z,98636.59
2023-02-02T11:21:54.372Z,98636.13
2023-02-02T11:24:23.403Z,98638.22
2023-02-02T11:27:02.160Z,98643.06
2023-02-02T11:29:32.295Z,98644.25
2023-02-02T11:32:33.340Z,98640.97
2023-02-02T11:35:18.314Z,98643.13
2023-02-02T11:38:08.365Z,98640.66
2023-02-02T11:40:42.043Z,98647.47
2023-02-02T11:43:42.118Z,98641.22
2023-02-02T11:46:26.117Z,98647.25
2023-02-02T11:48:59.455Z,98648.72
2023-02-02T11:51:29.025Z,98646.66
2023-02-02T11:54:18.849Z,98643.22
2023-02-02T11:56:52.579Z,98644.31
2023-02-02T11:59:34.153Z,98648.81
2023-02-02T12:02:37.570Z,98653.03
2023-02-02T12:05:10.307Z,98650.81
2023-02-02T12:07:38.870Z,98648.88
2023-02-02T12:10:27.808Z,98650.47
2023-02-02T12:13:10.590Z,98645.78
2023-02-02T12:15:54.761Z,98653.28
2023-02-02T12:18:38.589Z,98660.97
2023-02-02T12:21:28.265Z,98656.41
2023-02-02T12:24:07.914Z,98655.44
2023-02-02T12:26:38.673Z,98653.72
2023-02-02T12:29:25.042Z,98652.56
2023-02-02T12:32:03.152Z,98647.09
2023-02-02T12:34:38.142Z,98638.94
2023-02-02T12:37:23.703Z,98649.13
2023-02-02T12:40:17.658Z,98651.63
2023-02-02T12:43:11.680Z,98651.50
2023-02-02T12:45:46.238Z,98654.19
2023-02-02T12:48:31.976Z,98648.72
2023-02-02T12:51:28.468Z,98654.53
2023-02-02T12:54:33.412Z,98657.41
2023-02-02T12:57:31.596Z,98650.81
2023-02-02T13:00:11.603Z,98643.00
2023-02-02T13:02:57.660Z,98645.56
2023-02-02T13:05:48.609Z,98657.75
2023-02-02T13:08:16.007Z,98650.91
2023-02-02T13:10:53.593Z,98654.22
2023-02-02T13:13:26.673Z,98646.31
2023-02-02T13:16:15.248Z,98642.03
2023-02-02T13:18:52.234Z,98646.38
2023-02-02T13:21:23.903Z,98647.84
2023-02-02T13:23:55.308Z,98642.28
2023-02-02T13:26:41.052Z,98649.94
2023-02-02T13:29:20.004Z,98647.88
2023-02-02T13:31:55.877Z,98654.47
2023-02-02T13:34:36.703Z,98650.44
2023-02-02T13:37:37.998Z,98655.06
2023-02-02T13:40:25.640Z,98657.25
2023-02-02T13:42:53.527Z,98662.59
2023-02-02T15:56:55.073Z,98770.66
2023-02-02T15:59:25.279Z,98785.19
2023-02-02T16:02:13.336Z,98786.63
2023-02-02T16:04:45.163Z,98791.47
2023-02-02T16:07:28.046Z,98792.88
2023-02-02T16:10:08.378Z,98786.38
2023-02-02T16:12:42.830Z,98786.03
2023-02-02T16:15:20.399Z,98787.41
2023-02-02T16:17:59.956Z,98781.16
2023-02-02T16:20:29.442Z,98784.50
2023-02-02T16:23:02.027Z,98786.19
2023-02-02T16:25:32.551Z,98789.41
2023-02-02T16:28:03.515Z,98797.19
2023-02-02T16:30:38.684Z,98793.47
2023-02-02T16:33:29.059Z,98787.19
2023-02-02T16:35:57.336Z,98804.50
2023-02-02T16:38:32.643Z,98806.16
2023-02-02T16:41:25.127Z,98809.44
2023-02-02T16:43:52.968Z,98807.69
2023-02-02T16:46:41.622Z,98813.69
2023-02-02T16:49:22.548Z,98819.03
2023-02-02T16:52:13.779Z,98824.25
2023-02-02T16:54:50.427Z,98833.00
2023-02-02T16:57:22.589Z,98830.63
2023-02-02T16:59:54.526Z,98838.41
2023-02-02T17:02:29.764Z,98834.16
2023-02-02T17:05:04.849Z,98829.84
2023-02-02T17:07:35.205Z,98836.81
2023-02-02T17:10:15.336Z,98832.44
2023-02-02T17:12:46.509Z,98841.06
2023-02-02T17:15:16.927Z,98837.59
2023-02-02T17:17:48.843Z,98846.25
2023-02-02T17:20:18.934Z,98847.03
2023-02-02T17:22:53.783Z,98846.16
2023-02-02T17:25:43.901Z,98851.53
2023-02-02T17:28:16.681Z,98853.38
2023-02-02T17:30:45.488Z,98843.94
2023-02-02T17:33:18.791Z,98849.19
2023-02-02T17:35:54.842Z,98851.78
2023-02-02T17:38:28.075Z,98849.94
2023-02-02T17:41:01.198Z,98852.53
2023-02-02T17:43:31.074Z,98859.34
2023-02-02T17:45:58.801Z,98861.19
2023-02-02T17:48:27.005Z,98859.38
2023-02-02T17:50:54.964Z,98861.94
2023-02-02T17:53:23.442Z,98864.59
2023-02-02T17:55:52.588Z,98872.22
2023-02-02T17:58:20.751Z,98871.25
2023-02-02T18:00:53.574Z,98875.59
2023-02-02T18:03:32.469Z,98878.19
2023-02-02T18:06:02.092Z,98873.88
2023-02-02T18:08:31.339Z,98877.63
2023-02-02T18:10:59.915Z,98873.38
2023-02-02T18:13:47.302Z,98882.28
2023-02-02T18:16:15.316Z,98875.34
2023-02-02T18:18:42.800Z,98887.59
2023-02-02T18:21:11.355Z,98891.06
2023-02-02T18:23:39.389Z,98888.38
2023-02-02T18:26:34.909Z,98897.88
2023-02-02T18:29:03.032Z,98889.25
2023-02-02T18:31:31.899Z,98900.34
2023-02-02T18:33:59.914Z,98896.69
2023-02-02T18:36:27.124Z,98893.00
2023-02-02T18:38:56.908Z,98899.88
2023-02-02T18:41:24.611Z,98898.97
2023-02-02T18:43:55.458Z,98905.81
2023-02-02T18:46:23.217Z,98902.34
2023-02-02T18:48:50.572Z,98903.22
2023-02-02T18:51:19.476Z,98896.44
2023-02-02T18:53:47.491Z,98902.56
2023-02-02T18:56:15.600Z,98893.91
2023-02-02T18:58:43.170Z,98903.41
2023-02-02T19:01:16.992Z,98908.66
2023-02-02T19:03:49.527Z,98907.00
2023-02-02T19:06:37.600Z,98916.47
2023-02-02T19:09:06.629Z,98919.09
2023-02-02T19:11:39.447Z,98918.09
2023-02-02T19:14:12.040Z,98916.41
2023-02-02T19:16:39.683Z,98914.53
2023-02-02T19:19:21.368Z,98911.06
2023-02-02T19:21:49.216Z,98912.66
2023-02-02T19:24:16.788Z,98912.53
2023-02-02T19:26:50.134Z,98916.72
2023-02-02T19:29:24.465Z,98924.50
2023-02-02T19:32:18.925Z,98922.72
2023-02-02T19:34:47.741Z,98927.88
2023-02-02T19:37:25.808Z,98931.25
2023-02-02T19:40:15.918Z,98929.47
2023-02-02T19:43:18.628Z,98924.09
2023-02-02T19:45:46.148Z,98925.81
2023-02-02T19:48:18.903Z,98920.56
2023-02-02T19:50:47.161Z,98924.88
2023-02-02T19:53:24.426Z,98930.91
2023-02-02T19:55:53.553Z,98931.72
2023-02-02T19:58:34.800Z,98933.56
2023-02-02T20:01:16.348Z,98935.38
2023-02-02T20:03:46.739Z,98938.00
2023-02-02T20:06:23.168Z,98932.03
2023-02-02T20:08:52.095Z,98927.75
2023-02-02T20:11:45.882Z,98926.94
2023-02-02T20:14:19.588Z,98926.19
2023-02-02T20:16:52.551Z,98932.25
2023-02-02T20:19:29.989Z,98933.00
2023-02-02T20:21:57.530Z,98932.09
2023-02-02T20:24:33.563Z,98938.19
2023-02-02T20:27:34.215Z,98943.28
2023-02-02T20:30:19.840Z,98941.53
2023-02-02T20:32:56.342Z,98946.69
2023-02-02T20:35:44.996Z,98941.41
2023-02-02T20:38:33.401Z,98950.97
2023-02-02T20:41:03.248Z,98941.34
2023-02-02T20:43:37.316Z,98946.56
2023-02-02T20:46:05.826Z,98951.78
2023-02-02T20:48:34.387Z,98945.72
2023-02-02T20:51:05.430Z,98948.31
2023-02-02T20:53:36.693Z,98941.34
2023-02-02T20:56:04.443Z,98938.81
2023-02-02T20:58:32.076Z,98944.03
2023-02-02T21:01:00.967Z,98951.03
2023-02-02T21:03:28.705Z,98958.06
2023-02-02T21:05:56.344Z,98949.34
2023-02-02T21:08:24.127Z,98954.59
2023-02-02T21:10:51.269Z,98961.56
2023-02-02T21:13:18.797Z,98972.03
2023-02-02T21:15:46.321Z,98960.78
2023-02-02T21:18:14.024Z,98962.53
2023-02-02T21:20:41.459Z,98973.91
2023-02-02T21:23:10.530Z,98967.94
2023-02-02T21:25:38.239Z,98972.31
2023-02-02T21:28:05.615Z,98977.50
2023-02-02T21:30:33.572Z,98977.44
2023-02-02T21:33:01.349Z,98981.78
2023-02-02T21:35:28.876Z,98982.63
2023-02-02T21:37:58.741Z,98981.69
2023-02-02T21:40:30.125Z,98986.03
2023-02-02T21:43:00.533Z,98985.09
2023-02-02T21:45:36.247Z,98987.75
2023-02-02T21:48:18.167Z,98991.16
2023-02-02T21:50:46.401Z,98991.25
2023-02-02T21:53:26.203Z,98996.38
2023-02-02T21:56:00.360Z,99000.75
2023-02-02T21:58:40.843Z,99000.69
2023-02-02T22:01:17.177Z,98998.03
2023-02-02T22:03:49.956Z,99004.13
2023-02-02T22:06:38.399Z,99003.22
2023-02-02T22:09:11.884Z,99002.50
2023-02-02T22:11:52.810Z,99000.69
2023-02-02T22:14:22.098Z,99001.53
2023-02-02T22:16:52.139Z,99012.81
2023-02-02T22:19:22.599Z,99012.81
2023-02-02T22:21:49.998Z,99014.53
2023-02-02T22:24:17.250Z,99018.91
2023-02-02T22:26:44.882Z,99018.03
2023-02-02T22:29:21.473Z,99015.50
2023-02-02T22:31:49.253Z,99023.25
2023-02-02T22:34:16.874Z,99022.41
2023-02-02T22:36:44.231Z,99023.31
2023-02-02T22:39:12.081Z,99022.44
2023-02-02T22:41:39.499Z,99028.53
2023-02-02T22:44:06.979Z,99024.16
2023-02-02T22:46:34.390Z,99024.16
2023-02-02T22:49:01.786Z,99031.97
2023-02-02T22:51:29.157Z,99025.88
2023-02-02T22:53:58.128Z,99022.41
2023-02-02T22:56:28.503Z,99032.00
2023-02-02T22:58:56.021Z,99025.94
2023-02-02T23:01:23.546Z,99026.78
2023-02-02T23:03:51.283Z,99029.41
2023-02-02T23:06:19.107Z,99026.84
2023-02-02T23:08:47.294Z,99032.88
2023-02-02T23:11:14.603Z,99029.41
2023-02-02T23:13:42.180Z,99030.25
2023-02-02T23:16:11.372Z,99023.34
2023-02-02T23:18:39.114Z,99026.78
2023-02-02T23:21:06.688Z,99027.63
2023-02-02T23:23:34.363Z,99024.16
2023-02-02T23:26:01.496Z,99021.56
2023-02-02T23:28:29.183Z,99023.31
2023-02-02T23:30:59.411Z,99022.44
2023-02-02T23:33:27.317Z,99027.63
2023-02-02T23:35:54.804Z,99025.84
2023-02-02T23:38:21.980Z,99030.22
2023-02-02T23:40:49.851Z,99031.03
2023-02-02T23:43:17.909Z,99031.03
2023-02-02T23:45:45.688Z,99034.53
2023-02-02T23:48:13.468Z,99036.22
2023-02-02T23:50:42.011Z,99038.81
2023-02-02T23:53:11.411Z,99042.47
2023-02-02T23:55:41.997Z,99043.28
2023-02-02T23:58:10.922Z,99046.75
